Time,TemperatureF,DewpointF,PressureIn,WindDirection,WindDirectionDegrees,WindSpeedMPH,WindSpeedGustMPH,Humidity,HourlyPrecipIn,Conditions,Clouds,dailyrainin,SoftwareType,DateUTC
2013-02-05 00:00:00,7.2,2.3,29.97,ESE,112,0.0,2.0,80,0.00,,FEW250,0.00,VWS V14.01,2013-02-05 06:00:00,
2013-02-05 00:05:00,7.2,2.0,29.96,East,101,0.0,1.0,80,0.00,,,0.00,weatherlink.com 1.10,2013-02-05 06:05:00,
2013-02-05 00:20:00,6.5,2.0,29.95,East,101,0.0,0.0,80,0.00,,,0.00,weatherlink.com 1.10,2013-02-05 06:20:00,
2013-02-05 00:30:00,6.0,1.4,29.96,East,90,0.0,1.0,81,0.00,,FEW250,0.00,VWS V14.01,2013-02-05 06:30:00,
2013-02-05 00:35:00,5.7,1.0,29.96,East,101,0.0,1.0,82,0.00,,,0.00,weatherlink.com 1.10,2013-02-05 06:35:00,
2013-02-05 00:50:00,4.4,0.0,29.95,SSE,153,0.0,1.0,83,0.00,,,0.00,weatherlink.com 1.10,2013-02-05 06:50:00,
2013-02-05 01:00:00,4.5,0.7,29.94,SSW,202,0.0,1.0,84,0.00,,FEW250,0.00,VWS V14.01,2013-02-05 07:00:00,
2013-02-05 01:05:00,4.7,1.0,29.95,SSE,160,0.0,1.0,84,0.00,,,0.00,weatherlink.com 1.10,2013-02-05 07:05:00,
2013-02-05 01:20:00,4.9,1.0,29.95,SSE,160,0.0,0.0,84,0.00,,,0.00,weatherlink.com 1.10,2013-02-05 07:20:00,
2013-02-05 01:30:00,4.7,0.9,29.95,SSW,202,0.0,0.0,84,0.00,,FEW250,0.00,VWS V14.01,2013-02-05 07:30:00,
2013-02-05 01:35:00,4.5,1.0,29.96,SW,236,0.0,0.0,84,0.00,,,0.00,weatherlink.com 1.10,2013-02-05 07:35:00,
2013-02-05 01:50:00,3.7,0.0,29.95,SW,219,0.0,1.0,84,0.00,,,0.00,weatherlink.com 1.10,2013-02-05 07:50:00,
2013-02-05 02:00:00,3.5,0.0,29.94,SW,225,0.0,1.0,85,0.00,,FEW250,0.00,VWS V14.01,2013-02-05 08:00:00,
2013-02-05 02:05:00,3.5,0.0,29.94,SW,218,0.0,0.0,85,0.00,,,0.00,weatherlink.com 1.10,2013-02-05 08:05:00,
2013-02-05 02:20:00,3.5,0.0,29.93,SW,218,0.0,0.0,85,0.00,,,0.00,weatherlink.com 1.10,2013-02-05 08:20:00,
2013-02-05 02:30:00,3.6,0.1,29.92,South,180,0.0,1.0,85,0.00,,FEW250,0.00,VWS V14.01,2013-02-05 08:30:00,
2013-02-05 02:35:00,3.7,0.0,29.92,SSE,162,0.0,1.0,85,0.00,,,0.00,weatherlink.com 1.10,2013-02-05 08:35:00,
2013-02-05 02:50:00,3.8,0.0,29.91,SSE,161,0.0,0.0,85,0.00,,,0.00,weatherlink.com 1.10,2013-02-05 08:50:00,
2013-02-05 03:00:00,3.9,0.2,29.92,SW,225,0.0,1.0,84,0.00,,FEW250,0.00,VWS V14.01,2013-02-05 09:00:00,
2013-02-05 03:05:00,4.3,0.0,29.92,SW,217,1.0,1.0,83,0.00,,,0.00,weatherlink.com 1.10,2013-02-05 09:05:00,
2013-02-05 03:20:00,4.9,0.0,29.92,SW,223,2.0,4.0,81,0.00,,,0.00,weatherlink.com 1.10,2013-02-05 09:20:00,
2013-02-05 03:30:00,4.9,0.1,29.92,SW,225,1.0,5.0,80,0.00,,FEW250,0.00,VWS V14.01,2013-02-05 09:30:00,
2013-02-05 03:35:00,4.7,0.0,29.91,SSW,213,0.0,1.0,80,0.00,,,0.00,weatherlink.com 1.10,2013-02-05 09:35:00,
2013-02-05 03:50:00,5.2,0.0,29.91,SSW,207,0.0,1.0,80,0.00,,,0.00,weatherlink.com 1.10,2013-02-05 09:50:00,
2013-02-05 04:00:00,5.4,0.0,29.92,SSW,202,0.0,1.0,78,0.00,,FEW250,0.00,VWS V14.01,2013-02-05 10:00:00,
2013-02-05 04:05:00,5.9,0.0,29.92,WSW,241,0.0,1.0,78,0.00,,,0.00,weatherlink.com 1.10,2013-02-05 10:05:00,
2013-02-05 04:20:00,7.2,2.0,29.92,SW,227,0.0,1.0,78,0.00,,,0.00,weatherlink.com 1.10,2013-02-05 10:20:00,
2013-02-05 04:30:00,8.1,2.7,29.92,SW,225,0.0,2.0,78,0.00,,FEW250,0.00,VWS V14.01,2013-02-05 10:30:00,
2013-02-05 04:35:00,8.1,3.0,29.92,SW,223,1.0,2.0,79,0.00,,,0.00,weatherlink.com 1.10,2013-02-05 10:35:00,
2013-02-05 04:50:00,9.7,4.0,29.92,West,267,0.0,4.0,79,0.00,,,0.00,weatherlink.com 1.10,2013-02-05 10:50:00,
2013-02-05 05:00:00,9.9,4.2,29.92,SW,225,1.0,5.0,77,0.00,,FEW250,0.00,VWS V14.01,2013-02-05 11:00:00,
2013-02-05 05:06:00,10.0,4.0,29.92,SW,232,1.0,3.0,77,0.00,,,0.00,weatherlink.com 1.10,2013-02-05 11:06:00,
2013-02-05 05:21:00,10.8,6.0,29.91,SW,217,0.0,2.0,80,0.00,,,0.00,weatherlink.com 1.10,2013-02-05 11:21:00,
2013-02-05 05:30:00,11.7,6.7,29.91,SW,225,0.0,2.0,80,0.00,,FEW250,0.00,VWS V14.01,2013-02-05 11:30:00,
2013-02-05 05:36:00,12.8,9.0,29.91,WSW,250,1.0,4.0,86,0.00,,,0.00,weatherlink.com 1.10,2013-02-05 11:36:00,
2013-02-05 05:51:00,14.6,12.0,29.90,SSW,211,6.0,7.0,88,0.00,,,0.00,weatherlink.com 1.10,2013-02-05 11:51:00,
2013-02-05 06:00:00,15.0,12.4,29.90,SW,225,3.0,8.0,89,0.00,,FEW250,0.00,VWS V14.01,2013-02-05 12:00:00,
2013-02-05 06:06:00,15.2,13.0,29.90,SW,236,5.0,8.0,90,0.00,,,0.00,weatherlink.com 1.10,2013-02-05 12:06:00,
2013-02-05 06:21:00,15.7,14.0,29.89,South,183,4.0,7.0,91,0.00,,,0.00,weatherlink.com 1.10,2013-02-05 12:21:00,
2013-02-05 06:36:00,16.0,14.0,29.89,SE,142,2.0,6.0,91,0.00,,,0.00,weatherlink.com 1.10,2013-02-05 12:36:00,
2013-02-05 06:51:00,16.0,14.0,29.89,South,173,1.0,6.0,91,0.00,,,0.00,weatherlink.com 1.10,2013-02-05 12:51:00,
2013-02-05 06:59:00,16.2,14.0,29.89,SE,138,1.0,3.0,91,0.00,,FEW250,0.00,VWS V14.01,2013-02-05 12:59:00,
2013-02-05 07:04:00,16.3,14.1,29.89,SE,145,1.0,2.0,91,0.00,,FEW250,0.00,VWS V14.01,2013-02-05 13:04:00,
2013-02-05 07:09:00,16.4,14.2,29.88,SSE,162,1.0,2.0,91,0.00,,,0.00,VWS V14.01,2013-02-05 13:09:00,
2013-02-05 07:14:00,16.4,14.2,29.87,SSW,207,3.0,6.0,91,0.00,,,0.00,VWS V14.01,2013-02-05 13:14:00,
2013-02-05 07:19:00,16.6,14.4,29.88,SW,221,5.0,8.0,91,0.00,,,0.00,VWS V14.01,2013-02-05 13:19:00,
2013-02-05 07:24:00,16.8,14.6,29.87,SE,143,3.0,8.0,91,0.00,,,0.00,VWS V14.01,2013-02-05 13:24:00,
2013-02-05 07:29:00,17.0,14.8,29.86,SSE,162,8.0,8.0,91,0.00,,,0.00,VWS V14.01,2013-02-05 13:29:00,
2013-02-05 07:34:00,17.2,15.0,29.86,SW,218,7.0,9.0,91,0.00,,,0.00,VWS V14.01,2013-02-05 13:34:00,
2013-02-05 07:39:00,17.5,15.3,29.86,SSW,194,5.0,10.0,91,0.00,,OVC055,0.00,VWS V14.01,2013-02-05 13:39:00,
2013-02-05 07:44:00,17.7,15.5,29.85,SSW,211,4.0,10.0,91,0.00,,OVC055,0.00,VWS V14.01,2013-02-05 13:44:00,
2013-02-05 07:49:00,17.9,15.7,29.85,SSW,194,7.0,10.0,91,0.00,,OVC055,0.00,VWS V14.01,2013-02-05 13:49:00,
2013-02-05 07:54:00,17.9,15.5,29.85,SW,227,4.0,11.0,90,0.00,,OVC055,0.00,VWS V14.01,2013-02-05 13:54:00,
2013-02-05 07:59:00,18.0,15.6,29.85,SSW,210,6.0,11.0,90,0.00,,OVC055,0.00,VWS V14.01,2013-02-05 13:59:00,
2013-02-05 08:04:00,17.9,15.5,29.86,SSW,200,8.0,10.0,90,0.00,,OVC055,0.00,VWS V14.01,2013-02-05 14:04:00,
2013-02-05 08:09:00,17.9,15.5,29.86,South,173,3.0,10.0,90,0.00,,OVC055,0.00,VWS V14.01,2013-02-05 14:09:00,
2013-02-05 08:14:00,17.9,15.5,29.86,SW,215,5.0,10.0,90,0.00,,OVC055,0.00,VWS V14.01,2013-02-05 14:14:00,
2013-02-05 08:19:00,17.8,15.1,29.86,SSW,209,5.0,10.0,89,0.00,,OVC055,0.00,VWS V14.01,2013-02-05 14:19:00,
2013-02-05 08:24:00,17.7,15.0,29.86,SW,219,3.0,10.0,89,0.00,,OVC055,0.00,VWS V14.01,2013-02-05 14:24:00,
2013-02-05 08:29:00,17.9,15.2,29.86,South,179,2.0,10.0,89,0.00,,OVC055,0.00,VWS V14.01,2013-02-05 14:29:00,
2013-02-05 08:34:00,18.0,15.1,29.86,SW,223,1.0,3.0,88,0.00,,OVC055,0.00,VWS V14.01,2013-02-05 14:34:00,
2013-02-05 08:39:00,18.3,15.4,29.87,WSW,244,1.0,3.0,88,0.00,,OVC150,0.00,VWS V14.01,2013-02-05 14:39:00,
2013-02-05 08:44:00,19.1,16.1,29.87,SW,225,1.0,3.0,88,0.00,,OVC150,0.00,VWS V14.01,2013-02-05 14:44:00,
2013-02-05 08:49:00,20.1,16.9,29.86,SSW,207,2.0,3.0,87,0.00,,OVC150,0.00,VWS V14.01,2013-02-05 14:49:00,
2013-02-05 08:54:00,20.6,16.8,29.86,SSW,200,4.0,5.0,85,0.00,,OVC150,0.00,VWS V14.01,2013-02-05 14:54:00,
2013-02-05 08:59:00,20.6,17.1,29.85,SW,223,3.0,7.0,86,0.00,,OVC150,0.00,VWS V14.01,2013-02-05 14:59:00,
2013-02-05 09:04:00,21.2,17.7,29.85,SSW,209,5.0,5.0,86,0.00,,OVC150,0.00,VWS V14.01,2013-02-05 15:04:00,
2013-02-05 09:09:00,21.6,17.8,29.85,SSW,210,6.0,7.0,85,0.00,,OVC150,0.00,VWS V14.01,2013-02-05 15:09:00,
2013-02-05 09:14:00,21.7,18.2,29.84,SSW,209,10.0,10.0,86,0.00,,OVC150,0.00,VWS V14.01,2013-02-05 15:14:00,
2013-02-05 09:19:00,21.7,18.2,29.84,SSW,211,7.0,10.0,86,0.00,,OVC150,0.00,VWS V14.01,2013-02-05 15:19:00,
2013-02-05 09:24:00,21.6,18.1,29.83,South,182,3.0,10.0,86,0.00,,OVC150,0.00,VWS V14.01,2013-02-05 15:24:00,
2013-02-05 09:29:00,21.6,18.1,29.83,South,176,6.0,10.0,86,0.00,,OVC150,0.00,VWS V14.01,2013-02-05 15:29:00,
2013-02-05 09:34:00,21.7,18.2,29.83,SW,227,7.0,8.0,86,0.00,,OVC150,0.00,VWS V14.01,2013-02-05 15:34:00,
2013-02-05 09:39:00,21.9,18.4,29.83,SW,223,10.0,10.0,86,0.00,,BKN250,0.00,VWS V14.01,2013-02-05 15:39:00,
2013-02-05 09:44:00,21.9,18.4,29.83,WSW,246,10.0,11.0,86,0.00,,BKN250,0.00,VWS V14.01,2013-02-05 15:44:00,
2013-02-05 09:49:00,22.0,18.7,29.83,SW,225,11.0,11.0,87,0.00,,BKN250,0.00,VWS V14.01,2013-02-05 15:49:00,
2013-02-05 09:54:00,22.3,19.0,29.83,WNW,292,4.0,13.0,87,0.00,,BKN250,0.00,VWS V14.01,2013-02-05 15:54:00,
2013-02-05 09:59:00,22.8,19.2,29.83,SW,229,10.0,14.0,86,0.00,,BKN250,0.00,VWS V14.01,2013-02-05 15:59:00,
2013-02-05 10:04:00,22.8,19.2,29.83,West,271,8.0,12.0,86,0.00,,BKN250,0.00,VWS V14.01,2013-02-05 16:04:00,
2013-02-05 10:09:00,22.8,19.5,29.84,WSW,237,5.0,12.0,87,0.00,,BKN250,0.00,VWS V14.01,2013-02-05 16:09:00,
2013-02-05 10:14:00,23.1,19.8,29.83,SSW,211,7.0,12.0,87,0.00,,BKN250,0.00,VWS V14.01,2013-02-05 16:14:00,
2013-02-05 10:18:00,23.4,20.4,29.83,SW,236,11.0,12.0,88,0.00,,BKN250,0.00,VWS V14.01,2013-02-05 16:18:00,
2013-02-05 10:23:00,23.9,20.9,29.83,SW,233,12.0,14.0,88,0.00,,BKN250,0.00,VWS V14.01,2013-02-05 16:23:00,
2013-02-05 10:28:00,24.2,21.2,29.83,SSW,203,9.0,15.0,88,0.00,,BKN250,0.00,VWS V14.01,2013-02-05 16:28:00,
2013-02-05 10:33:00,24.4,21.4,29.83,SW,221,6.0,15.0,88,0.00,,BKN250,0.00,VWS V14.01,2013-02-05 16:33:00,
2013-02-05 10:39:00,24.4,21.4,29.83,WSW,241,8.0,15.0,88,0.00,,OVC029,0.00,VWS V14.01,2013-02-05 16:39:00,
2013-02-05 10:44:00,24.6,21.8,29.83,SW,222,12.0,15.0,89,0.00,,OVC029,0.00,VWS V14.01,2013-02-05 16:44:00,
2013-02-05 10:49:00,24.8,21.8,29.84,SW,225,7.0,16.0,88,0.00,,OVC029,0.00,VWS V14.01,2013-02-05 16:49:00,
2013-02-05 10:54:00,25.2,22.1,29.84,WNW,285,6.0,16.0,88,0.00,,OVC029,0.00,VWS V14.01,2013-02-05 16:54:00,
2013-02-05 10:58:00,25.4,22.4,29.84,SW,215,7.0,16.0,88,0.00,,OVC029,0.00,VWS V14.01,2013-02-05 16:58:00,
2013-02-05 11:03:00,25.5,22.5,29.84,WSW,256,3.0,9.0,88,0.00,,OVC029,0.00,VWS V14.01,2013-02-05 17:03:00,
2013-02-05 11:08:00,25.7,22.6,29.84,SW,217,9.0,12.0,88,0.00,,OVC029,0.00,VWS V14.01,2013-02-05 17:08:00,
2013-02-05 11:13:00,25.9,22.8,29.83,SSW,200,2.0,12.0,88,0.00,,OVC029,0.00,VWS V14.01,2013-02-05 17:13:00,
2013-02-05 11:18:00,26.3,23.2,29.83,WSW,242,6.0,12.0,88,0.00,,OVC029,0.00,VWS V14.01,2013-02-05 17:18:00,
2013-02-05 11:23:00,26.6,23.5,29.83,WNW,295,4.0,12.0,88,0.00,,OVC029,0.00,VWS V14.01,2013-02-05 17:23:00,
2013-02-05 11:28:00,27.0,23.9,29.83,SW,223,4.0,12.0,88,0.00,,OVC029,0.00,VWS V14.01,2013-02-05 17:28:00,
2013-02-05 11:33:00,27.2,24.1,29.83,West,267,7.0,9.0,88,0.00,,OVC029,0.00,VWS V14.01,2013-02-05 17:33:00,
2013-02-05 11:38:00,27.3,24.0,29.83,WSW,249,4.0,10.0,87,0.00,,OVC025,0.00,VWS V14.01,2013-02-05 17:38:00,
2013-02-05 11:43:00,27.3,24.0,29.83,West,267,5.0,10.0,87,0.00,,OVC025,0.00,VWS V14.01,2013-02-05 17:43:00,
2013-02-05 11:48:00,27.4,24.0,29.83,SW,221,7.0,10.0,87,0.00,,OVC025,0.00,VWS V14.01,2013-02-05 17:48:00,
2013-02-05 11:53:00,27.4,24.0,29.83,WNW,291,10.0,10.0,87,0.00,,OVC025,0.00,VWS V14.01,2013-02-05 17:53:00,
2013-02-05 11:58:00,27.5,24.1,29.82,WSW,246,4.0,10.0,87,0.00,,OVC025,0.00,VWS V14.01,2013-02-05 17:58:00,
2013-02-05 12:03:00,27.7,24.3,29.82,SW,226,3.0,7.0,87,0.00,,OVC025,0.00,VWS V14.01,2013-02-05 18:03:00,
2013-02-05 12:08:00,28.0,24.6,29.81,WNW,284,6.0,8.0,87,0.00,,OVC025,0.00,VWS V14.01,2013-02-05 18:08:00,
2013-02-05 12:13:00,28.3,24.9,29.81,West,280,6.0,8.0,87,0.00,,OVC025,0.00,VWS V14.01,2013-02-05 18:13:00,
2013-02-05 12:18:00,28.6,25.0,29.81,WNW,292,5.0,10.0,86,0.00,,OVC025,0.00,VWS V14.01,2013-02-05 18:18:00,
2013-02-05 12:23:00,28.5,24.9,29.81,West,261,8.0,10.0,86,0.00,,OVC025,0.00,VWS V14.01,2013-02-05 18:23:00,
2013-02-05 12:28:00,28.6,25.2,29.81,SW,216,4.0,10.0,87,0.00,,OVC025,0.00,VWS V14.01,2013-02-05 18:28:00,
2013-02-05 12:33:00,28.6,25.2,29.81,WSW,246,7.0,10.0,87,0.00,,,0.00,VWS V14.01,2013-02-05 18:33:00,
2013-02-05 12:38:00,28.4,25.0,29.81,WNW,283,6.0,11.0,87,0.00,,,0.00,VWS V14.01,2013-02-05 18:38:00,
2013-02-05 12:43:00,28.2,24.8,29.81,West,268,8.0,11.0,87,0.00,,,0.00,VWS V14.01,2013-02-05 18:43:00,
2013-02-05 12:48:00,27.9,25.1,29.82,West,275,8.0,11.0,89,0.00,,,0.00,VWS V14.01,2013-02-05 18:48:00,
2013-02-05 12:53:00,27.4,25.1,29.82,NW,309,4.0,11.0,91,0.00,,,0.00,VWS V14.01,2013-02-05 18:53:00,
2013-02-05 12:59:00,27.2,25.2,29.82,SW,223,3.0,11.0,92,0.00,,,0.00,VWS V14.01,2013-02-05 18:59:00,
2013-02-05 13:04:00,27.2,25.5,29.82,West,265,3.0,10.0,93,0.00,,,0.00,VWS V14.01,2013-02-05 19:04:00,
2013-02-05 13:09:00,27.1,25.4,29.82,WSW,254,2.0,11.0,93,0.00,,,0.00,VWS V14.01,2013-02-05 19:09:00,
2013-02-05 13:13:00,27.2,25.7,29.82,West,280,8.0,11.0,94,0.00,,,0.00,VWS V14.01,2013-02-05 19:13:00,
2013-02-05 13:19:00,27.3,25.8,29.82,West,265,7.0,11.0,94,0.00,,,0.00,VWS V14.01,2013-02-05 19:19:00,
2013-02-05 13:23:00,27.3,25.5,29.82,WNW,284,7.0,11.0,93,0.00,,,0.00,VWS V14.01,2013-02-05 19:23:00,
2013-02-05 13:28:00,27.5,25.8,29.83,WNW,289,8.0,11.0,93,0.00,,,0.00,VWS V14.01,2013-02-05 19:28:00,
2013-02-05 13:33:00,27.6,25.8,29.82,West,272,4.0,10.0,93,0.00,,,0.00,VWS V14.01,2013-02-05 19:33:00,
2013-02-05 13:38:00,27.8,26.0,29.82,WNW,282,6.0,10.0,93,0.00,,,0.00,VWS V14.01,2013-02-05 19:38:00,
2013-02-05 13:44:00,27.9,26.1,29.83,WNW,303,9.0,10.0,93,0.00,,,0.00,VWS V14.01,2013-02-05 19:44:00,
2013-02-05 13:49:00,28.0,26.2,29.83,West,281,2.0,10.0,93,0.00,,,0.00,VWS V14.01,2013-02-05 19:49:00,
2013-02-05 13:54:00,28.2,26.2,29.83,WSW,252,5.0,10.0,92,0.00,,,0.00,VWS V14.01,2013-02-05 19:54:00,
2013-02-05 13:59:00,28.3,26.3,29.83,West,278,4.0,10.0,92,0.00,,,0.00,VWS V14.01,2013-02-05 19:59:00,
2013-02-05 14:04:00,28.5,26.5,29.83,WSW,250,8.0,8.0,92,0.00,,,0.00,VWS V14.01,2013-02-05 20:04:00,
2013-02-05 14:09:00,28.5,26.2,29.82,WNW,286,3.0,8.0,91,0.00,,,0.00,VWS V14.01,2013-02-05 20:09:00,
2013-02-05 14:14:00,28.6,26.3,29.82,WNW,290,6.0,8.0,91,0.00,,,0.00,VWS V14.01,2013-02-05 20:14:00,
2013-02-05 14:19:00,28.7,26.4,29.82,NW,304,6.0,8.0,91,0.00,,,0.00,VWS V14.01,2013-02-05 20:19:00,
2013-02-05 14:24:00,28.6,26.0,29.83,West,279,9.0,10.0,90,0.00,,,0.00,VWS V14.01,2013-02-05 20:24:00,
2013-02-05 14:29:00,28.4,25.9,29.84,WNW,290,9.0,13.0,90,0.00,,,0.00,VWS V14.01,2013-02-05 20:29:00,
2013-02-05 14:34:00,28.3,26.0,29.84,West,267,8.0,9.0,91,0.00,,,0.00,VWS V14.01,2013-02-05 20:34:00,
2013-02-05 14:39:00,28.1,26.1,29.85,WNW,290,4.0,13.0,92,0.00,,,0.00,VWS V14.01,2013-02-05 20:39:00,
2013-02-05 14:44:00,28.0,26.0,29.85,WNW,283,8.0,13.0,92,0.00,,,0.00,VWS V14.01,2013-02-05 20:44:00,
2013-02-05 14:49:00,27.9,25.9,29.85,West,279,9.0,13.0,92,0.00,,,0.00,VWS V14.01,2013-02-05 20:49:00,
2013-02-05 14:54:00,27.9,25.9,29.85,West,260,5.0,13.0,92,0.00,,,0.00,VWS V14.01,2013-02-05 20:54:00,
2013-02-05 14:59:00,27.9,25.9,29.86,West,273,7.0,13.0,92,0.00,,,0.00,VWS V14.01,2013-02-05 20:59:00,
2013-02-05 15:04:00,27.9,25.9,29.86,WNW,286,7.0,11.0,92,0.00,,,0.00,VWS V14.01,2013-02-05 21:04:00,
2013-02-05 15:09:00,28.0,26.0,29.86,WNW,295,5.0,11.0,92,0.00,,,0.00,VWS V14.01,2013-02-05 21:09:00,
2013-02-05 15:14:00,28.1,25.8,29.86,WNW,288,7.0,11.0,91,0.00,,,0.00,VWS V14.01,2013-02-05 21:14:00,
2013-02-05 15:19:00,28.2,25.6,29.87,WNW,286,7.0,11.0,90,0.00,,,0.00,VWS V14.01,2013-02-05 21:19:00,
2013-02-05 15:24:00,28.3,25.8,29.87,NNW,345,3.0,11.0,90,0.00,,,0.00,VWS V14.01,2013-02-05 21:24:00,
2013-02-05 15:29:00,28.3,25.5,29.87,West,277,8.0,11.0,89,0.00,,,0.00,VWS V14.01,2013-02-05 21:29:00,
2013-02-05 15:34:00,28.4,25.6,29.87,WNW,288,6.0,10.0,89,0.00,,,0.00,VWS V14.01,2013-02-05 21:34:00,
2013-02-05 15:39:00,28.5,25.4,29.88,WNW,283,6.0,13.0,88,0.00,,,0.00,VWS V14.01,2013-02-05 21:39:00,
2013-02-05 15:44:00,28.5,25.4,29.88,WNW,298,14.0,14.0,88,0.00,,,0.00,VWS V14.01,2013-02-05 21:44:00,
2013-02-05 15:49:00,28.4,25.0,29.88,ENE,70,7.0,18.0,87,0.00,,,0.00,VWS V14.01,2013-02-05 21:49:00,
2013-02-05 15:54:00,28.4,25.0,29.89,WNW,284,9.0,18.0,87,0.00,,,0.00,VWS V14.01,2013-02-05 21:54:00,
2013-02-05 15:59:00,28.3,24.9,29.89,NE,36,9.0,18.0,87,0.00,,,0.00,VWS V14.01,2013-02-05 21:59:00,
2013-02-05 16:04:00,28.3,24.9,29.89,WNW,285,5.0,10.0,87,0.00,,,0.00,VWS V14.01,2013-02-05 22:04:00,
2013-02-05 16:09:00,28.3,25.2,29.90,WNW,302,5.0,10.0,88,0.00,,,0.00,VWS V14.01,2013-02-05 22:09:00,
2013-02-05 16:14:00,28.2,24.8,29.90,NW,315,10.0,11.0,87,0.00,,,0.00,VWS V14.01,2013-02-05 22:14:00,
2013-02-05 16:27:00,28.0,25.0,29.91,NNW,327,5.0,16.0,87,0.00,,,0.00,weatherlink.com 1.10,2013-02-05 22:27:00,
2013-02-05 16:30:00,28.0,24.6,29.91,WNW,292,7.0,15.0,87,0.00,,,0.00,VWS V14.01,2013-02-05 22:30:00,
2013-02-05 16:42:00,27.9,25.0,29.92,West,271,6.0,14.0,87,0.00,,,0.00,weatherlink.com 1.10,2013-02-05 22:42:00,
2013-02-05 16:57:00,28.0,24.0,29.92,NNE,31,3.0,12.0,86,0.00,,,0.00,weatherlink.com 1.10,2013-02-05 22:57:00,
2013-02-05 17:10:00,28.0,24.6,29.91,WNW,292,7.0,15.0,87,0.00,,,0.00,VWS V14.01,2013-02-05 23:10:00,
2013-02-05 17:15:00,28.0,24.4,29.93,WNW,292,3.0,7.0,86,0.00,,,0.00,VWS V14.01,2013-02-05 23:15:00,
2013-02-05 17:20:00,28.0,24.4,29.93,NNW,344,2.0,7.0,86,0.00,,,0.00,VWS V14.01,2013-02-05 23:20:00,
2013-02-05 17:25:00,28.0,24.4,29.94,West,260,1.0,7.0,86,0.00,,OVC015,0.00,VWS V14.01,2013-02-05 23:25:00,
2013-02-05 17:30:00,28.0,24.4,29.94,WNW,302,2.0,7.0,86,0.00,,OVC015,0.00,VWS V14.01,2013-02-05 23:30:00,
2013-02-05 17:35:00,28.0,24.4,29.94,WNW,288,5.0,6.0,86,0.00,,OVC022,0.00,VWS V14.01,2013-02-05 23:35:00,
2013-02-05 17:40:00,28.0,24.6,29.94,WNW,287,2.0,6.0,87,0.00,,OVC022,0.00,VWS V14.01,2013-02-05 23:40:00,
2013-02-05 17:45:00,27.9,24.5,29.95,WNW,291,4.0,6.0,87,0.00,,OVC022,0.00,VWS V14.01,2013-02-05 23:45:00,
2013-02-05 17:50:00,27.9,24.5,29.95,NNW,339,1.0,6.0,87,0.00,,OVC022,0.00,VWS V14.01,2013-02-05 23:50:00,
2013-02-05 17:55:00,27.9,24.5,29.95,WNW,303,1.0,6.0,87,0.00,,OVC022,0.00,VWS V14.01,2013-02-05 23:55:00,
2013-02-05 18:00:00,27.9,24.5,29.96,NW,316,2.0,6.0,87,0.00,,OVC022,0.00,VWS V14.01,2013-02-06 00:00:00,
2013-02-05 18:05:00,28.0,24.6,29.96,NW,306,5.0,5.0,87,0.00,,OVC022,0.00,VWS V14.01,2013-02-06 00:05:00,
2013-02-05 18:10:00,28.1,24.7,29.96,NNW,345,2.0,5.0,87,0.00,,OVC022,0.00,VWS V14.01,2013-02-06 00:10:00,
2013-02-05 18:15:00,28.1,24.7,29.96,WNW,288,2.0,5.0,87,0.00,,OVC022,0.00,VWS V14.01,2013-02-06 00:15:00,
2013-02-05 18:20:00,28.2,24.8,29.97,NW,305,2.0,5.0,87,0.00,,OVC022,0.00,VWS V14.01,2013-02-06 00:20:00,
2013-02-05 18:25:00,28.3,24.7,29.97,WNW,292,1.0,5.0,86,0.00,,OVC022,0.00,VWS V14.01,2013-02-06 00:25:00,
2013-02-05 18:30:00,28.3,24.7,29.97,NW,311,1.0,5.0,86,0.00,,OVC022,0.00,VWS V14.01,2013-02-06 00:30:00,
2013-02-05 18:35:00,28.4,24.8,29.97,NW,315,2.0,3.0,86,0.00,,OVC022,0.00,VWS V14.01,2013-02-06 00:35:00,
2013-02-05 18:40:00,28.4,24.8,29.98,WNW,284,1.0,3.0,86,0.00,,OVC022,0.00,VWS V14.01,2013-02-06 00:40:00,
2013-02-05 18:45:00,28.5,24.9,29.98,WNW,284,2.0,4.0,86,0.00,,OVC022,0.00,VWS V14.01,2013-02-06 00:45:00,
2013-02-05 18:50:00,28.6,25.0,29.98,WNW,296,3.0,4.0,86,0.00,,OVC022,0.00,VWS V14.01,2013-02-06 00:50:00,
2013-02-05 18:55:00,28.6,25.0,29.98,WNW,290,2.0,4.0,86,0.00,,OVC022,0.00,VWS V14.01,2013-02-06 00:55:00,
2013-02-05 19:00:00,28.6,25.0,29.98,West,281,2.0,4.0,86,0.00,,OVC022,0.00,VWS V14.01,2013-02-06 01:00:00,
2013-02-05 19:05:00,28.6,25.0,29.99,WNW,284,2.0,3.0,86,0.00,,OVC022,0.00,VWS V14.01,2013-02-06 01:05:00,
2013-02-05 19:10:00,28.6,25.0,29.99,WNW,288,3.0,3.0,86,0.00,,OVC022,0.00,VWS V14.01,2013-02-06 01:10:00,
2013-02-05 19:15:00,28.6,25.0,29.99,West,281,2.0,5.0,86,0.00,,OVC022,0.00,VWS V14.01,2013-02-06 01:15:00,
2013-02-05 19:20:00,28.7,25.0,29.99,WNW,285,1.0,5.0,86,0.00,,OVC022,0.00,VWS V14.01,2013-02-06 01:20:00,
2013-02-05 19:25:00,28.6,25.0,30.00,WNW,299,2.0,5.0,86,0.00,,OVC022,0.00,VWS V14.01,2013-02-06 01:25:00,
2013-02-05 19:30:00,28.6,25.0,30.00,WNW,285,2.0,5.0,86,0.00,,OVC022,0.00,VWS V14.01,2013-02-06 01:30:00,
2013-02-05 19:35:00,28.6,25.0,30.00,West,281,3.0,4.0,86,0.00,,OVC022,0.00,VWS V14.01,2013-02-06 01:35:00,
2013-02-05 19:40:00,28.6,25.2,30.00,WNW,291,3.0,6.0,87,0.00,,OVC022,0.00,VWS V14.01,2013-02-06 01:40:00,
2013-02-05 19:45:00,28.5,25.1,30.00,West,276,2.0,6.0,87,0.00,,OVC022,0.00,VWS V14.01,2013-02-06 01:45:00,
2013-02-05 19:50:00,28.5,25.1,30.01,West,271,0.0,6.0,87,0.00,,OVC022,0.00,VWS V14.01,2013-02-06 01:50:00,
2013-02-05 19:55:00,28.5,25.1,30.00,West,280,0.0,6.0,87,0.00,,OVC022,0.00,VWS V14.01,2013-02-06 01:55:00,
2013-02-05 20:00:00,28.6,25.2,30.01,WNW,302,0.0,6.0,87,0.00,,OVC022,0.00,VWS V14.01,2013-02-06 02:00:00,
2013-02-05 20:05:00,28.8,25.1,30.01,NW,326,0.0,4.0,86,0.00,,OVC022,0.00,VWS V14.01,2013-02-06 02:05:00,
2013-02-05 20:10:00,28.9,25.2,30.01,WNW,298,1.0,4.0,86,0.00,,OVC022,0.00,VWS V14.01,2013-02-06 02:10:00,
2013-02-05 20:15:00,29.1,25.2,30.01,NNW,342,1.0,7.0,85,0.00,,OVC022,0.00,VWS V14.01,2013-02-06 02:15:00,
2013-02-05 20:20:00,29.2,25.3,30.01,NW,322,6.0,7.0,85,0.00,,OVC022,0.00,VWS V14.01,2013-02-06 02:20:00,
2013-02-05 20:25:00,29.3,25.1,30.01,WNW,290,0.0,9.0,84,0.00,,OVC022,0.00,VWS V14.01,2013-02-06 02:25:00,
2013-02-05 20:30:00,29.3,25.4,30.01,NW,306,2.0,9.0,85,0.00,,OVC022,0.00,VWS V14.01,2013-02-06 02:30:00,
2013-02-05 20:35:00,29.3,25.1,30.01,WNW,295,1.0,7.0,84,0.00,,OVC024,0.00,VWS V14.01,2013-02-06 02:35:00,
2013-02-05 20:40:00,29.4,25.2,30.01,SW,218,0.0,7.0,84,0.00,,OVC024,0.00,VWS V14.01,2013-02-06 02:40:00,
2013-02-05 20:45:00,29.3,25.1,30.01,NW,321,2.0,7.0,84,0.00,,OVC024,0.00,VWS V14.01,2013-02-06 02:45:00,
2013-02-05 20:50:00,29.3,25.1,30.01,NNW,337,2.0,7.0,84,0.00,,OVC024,0.00,VWS V14.01,2013-02-06 02:50:00,
2013-02-05 20:55:00,29.3,24.8,30.01,NW,322,2.0,7.0,83,0.00,,OVC024,0.00,VWS V14.01,2013-02-06 02:55:00,
2013-02-05 21:00:00,29.3,24.8,30.02,NW,304,2.0,7.0,83,0.00,,OVC024,0.00,VWS V14.01,2013-02-06 03:00:00,
2013-02-05 21:05:00,29.3,24.5,30.02,NW,307,0.0,7.0,82,0.00,,OVC024,0.00,VWS V14.01,2013-02-06 03:05:00,
2013-02-05 21:10:00,29.3,24.5,30.02,NW,306,5.0,7.0,82,0.00,,OVC024,0.00,VWS V14.01,2013-02-06 03:10:00,
2013-02-05 21:19:00,29.3,24.0,30.03,WNW,302,3.0,6.0,81,0.00,,,0.00,weatherlink.com 1.10,2013-02-06 03:19:00,
2013-02-05 21:30:00,29.6,24.2,30.03,WNW,292,2.0,9.0,80,0.00,,OVC024,0.00,VWS V14.01,2013-02-06 03:30:00,
2013-02-05 21:34:00,29.5,24.0,30.04,NW,313,1.0,7.0,80,0.00,,,0.00,weatherlink.com 1.10,2013-02-06 03:34:00,
2013-02-05 21:49:00,29.4,24.0,30.05,NNW,344,0.0,4.0,80,0.00,,,0.00,weatherlink.com 1.10,2013-02-06 03:49:00,
2013-02-05 22:00:00,29.2,23.8,30.05,NW,315,2.0,8.0,80,0.00,,OVC024,0.00,VWS V14.01,2013-02-06 04:00:00,
2013-02-05 22:04:00,29.3,24.0,30.06,NW,309,2.0,7.0,79,0.00,,,0.00,weatherlink.com 1.10,2013-02-06 04:04:00,
2013-02-05 22:19:00,29.2,23.0,30.06,NW,309,0.0,6.0,78,0.00,,,0.00,weatherlink.com 1.10,2013-02-06 04:19:00,
2013-02-05 22:30:00,29.2,23.2,30.06,NW,315,2.0,7.0,78,0.00,,OVC024,0.00,VWS V14.01,2013-02-06 04:30:00,
2013-02-05 22:34:00,29.1,23.0,30.06,NNE,22,0.0,5.0,78,0.00,,,0.00,weatherlink.com 1.10,2013-02-06 04:34:00,
2013-02-05 22:49:00,28.8,23.0,30.07,NNW,338,2.0,4.0,80,0.00,,,0.00,weatherlink.com 1.10,2013-02-06 04:49:00,
2013-02-05 23:00:00,28.6,23.5,30.08,NNW,338,1.0,5.0,81,0.00,,OVC024,0.00,VWS V14.01,2013-02-06 05:00:00,
2013-02-05 23:04:00,28.6,24.0,30.07,NNW,340,1.0,5.0,82,0.00,,,0.00,weatherlink.com 1.10,2013-02-06 05:04:00,
2013-02-05 23:19:00,28.3,23.0,30.08,NNE,27,4.0,7.0,81,0.00,,,0.00,weatherlink.com 1.10,2013-02-06 05:19:00,
2013-02-05 23:30:00,28.0,22.6,30.08,NNW,338,2.0,7.0,80,0.00,,OVC024,0.00,VWS V14.01,2013-02-06 05:30:00,
2013-02-05 23:34:00,27.9,23.0,30.09,NNW,330,1.0,6.0,80,0.00,,,0.00,weatherlink.com 1.10,2013-02-06 05:34:00,
2013-02-05 23:49:00,27.4,21.0,30.09,NE,35,1.0,9.0,78,0.00,,,0.00,weatherlink.com 1.10,2013-02-06 05:49:00,